Time;durP1;ratioP1;P1;durP2;ratioP2;P2;SDS_P1;SDS_P2;PMS_P1;PMS_P2;Temp;Humidity;BMP_temperature;BMP_pressure;BME280_temperature;BME280_humidity;BME280_pressure;Samples;Min_cycle;Max_cycle;Signal;HPM_P1;HPM_P2
2023/06/01 00:02:21;;;;;;;6.03;3.03;;;13.20;99.90;;;;;;5062156;28;20040;-84
2023/06/01 00:04:50;;;;;;;10.25;7.10;;;13.20;99.90;;;;;;5068898;28;20061;-84
2023/06/01 00:07:18;;;;;;;8.25;4.93;;;13.10;99.90;;;;;;5070269;28;20048;-82
2023/06/01 00:09:46;;;;;;;9.55;3.70;;;13.10;99.90;;;;;;5073584;28;20052;-84
2023/06/01 00:12:13;;;;;;;5.80;2.50;;;13.00;99.90;;;;;;5055651;28;20097;-84
2023/06/01 00:14:41;;;;;;;8.85;3.30;;;13.00;99.90;;;;;;5054127;28;20175;-83
2023/06/01 00:17:09;;;;;;;5.38;3.33;;;13.00;99.90;;;;;;5043321;28;20087;-83
2023/06/01 00:19:38;;;;;;;6.63;2.70;;;13.00;99.90;;;;;;5036908;28;20075;-83
2023/06/01 00:22:08;;;;;;;4.85;3.65;;;13.10;99.90;;;;;;5068893;28;20095;-83
2023/06/01 00:24:35;;;;;;;7.13;2.53;;;13.10;99.90;;;;;;5064422;28;20044;-84
2023/06/01 00:27:03;;;;;;;8.60;3.17;;;13.10;99.90;;;;;;5067944;28;20123;-83
2023/06/01 00:29:31;;;;;;;8.95;3.13;;;13.10;99.90;;;;;;5053452;28;20103;-84
2023/06/01 00:31:59;;;;;;;6.03;2.50;;;13.10;99.90;;;;;;5049190;28;20048;-83
2023/06/01 00:34:26;;;;;;;5.50;2.78;;;13.10;99.90;;;;;;5052949;28;20080;-83
2023/06/01 00:36:54;;;;;;;5.68;2.83;;;13.10;99.90;;;;;;5071977;28;20055;-85
2023/06/01 00:39:23;;;;;;;7.03;2.92;;;13.10;99.90;;;;;;5066225;28;20056;-83
2023/06/01 00:41:50;;;;;;;7.03;3.38;;;13.00;99.90;;;;;;5068222;28;20514;-84
2023/06/01 00:44:18;;;;;;;6.60;2.55;;;13.00;99.90;;;;;;5053912;28;20137;-84
2023/06/01 00:46:45;;;;;;;6.10;3.28;;;13.00;99.90;;;;;;5071197;28;20045;-84
2023/06/01 00:49:13;;;;;;;5.57;2.58;;;13.00;99.90;;;;;;5058456;28;20098;-82
2023/06/01 00:51:40;;;;;;;6.57;2.55;;;12.90;99.90;;;;;;5053797;28;20106;-84
2023/06/01 00:54:08;;;;;;;6.38;2.85;;;12.90;99.90;;;;;;5068211;28;20048;-84
2023/06/01 00:56:37;;;;;;;12.85;3.08;;;13.00;99.90;;;;;;5053837;28;20131;-82
2023/06/01 00:59:07;;;;;;;6.57;2.70;;;13.00;99.90;;;;;;5050498;28;20056;-82
2023/06/01 01:01:36;;;;;;;6.72;3.10;;;13.00;99.90;;;;;;5068242;28;20063;-81
2023/06/01 01:04:04;;;;;;;5.55;2.60;;;12.90;99.90;;;;;;5072516;28;20402;-82
2023/06/01 01:06:48;;;;;;;3.80;2.70;;;12.90;99.90;;;;;;5069725;28;20087;-82
2023/06/01 01:09:25;;;;;;;7.65;2.78;;;12.80;99.90;;;;;;5051974;28;20505;-82
2023/06/01 01:12:03;;;;;;;10.60;3.45;;;12.80;99.90;;;;;;5061059;28;20056;-83
2023/06/01 01:14:39;;;;;;;4.80;3.05;;;12.70;99.90;;;;;;5053443;28;20065;-83
2023/06/01 01:17:16;;;;;;;6.95;2.78;;;12.60;99.90;;;;;;5055926;28;20053;-82
2023/06/01 01:19:55;;;;;;;6.60;3.00;;;12.50;99.90;;;;;;5064224;28;20513;-82
2023/06/01 01:22:40;;;;;;;4.97;2.45;;;12.50;99.90;;;;;;5052050;28;20083;-82
2023/06/01 01:25:40;;;;;;;5.80;3.05;;;12.50;99.90;;;;;;5053872;28;20103;-82
2023/06/01 01:28:22;;;;;;;6.80;3.30;;;12.50;99.90;;;;;;5053854;28;20041;-83
2023/06/01 01:30:54;;;;;;;8.17;3.37;;;12.50;99.90;;;;;;5061543;28;20040;-84
2023/06/01 01:33:23;;;;;;;10.13;2.63;;;12.60;99.90;;;;;;5054498;28;20501;-85
2023/06/01 01:35:50;;;;;;;5.10;2.90;;;12.60;99.90;;;;;;5051791;28;20041;-85
2023/06/01 01:38:18;;;;;;;13.35;4.80;;;12.70;99.90;;;;;;5054561;28;20045;-84
2023/06/01 01:40:46;;;;;;;5.85;2.75;;;12.70;99.90;;;;;;5054366;28;20041;-78
2023/06/01 01:43:14;;;;;;;5.18;2.80;;;12.80;99.90;;;;;;5069448;28;20076;-78
2023/06/01 01:49:13;;;;;;;4.75;2.72;;;12.90;99.90;;;;;;4983999;23;20067;-81
2023/06/01 01:51:50;;;;;;;6.82;2.63;;;12.90;99.90;;;;;;4953024;29;20392;-82
2023/06/01 01:54:19;;;;;;;7.60;2.75;;;12.90;99.90;;;;;;4918362;29;20111;-84
2023/06/01 01:56:48;;;;;;;8.35;3.17;;;12.90;99.90;;;;;;4915597;29;20106;-82
2023/06/01 01:59:16;;;;;;;4.82;2.58;;;12.90;99.90;;;;;;4932386;29;20086;-83
2023/06/01 02:01:44;;;;;;;5.50;2.38;;;12.90;99.90;;;;;;4916910;29;20527;-83
2023/06/01 02:04:13;;;;;;;4.45;2.38;;;12.90;99.90;;;;;;4917506;29;20107;-82
2023/06/01 02:06:40;;;;;;;6.28;2.50;;;12.90;99.90;;;;;;4915644;29;20081;-83
2023/06/01 02:09:08;;;;;;;8.57;2.63;;;12.90;99.90;;;;;;4902797;29;20052;-82
2023/06/01 02:11:37;;;;;;;3.70;2.20;;;12.80;99.90;;;;;;4916841;29;20050;-81
2023/06/01 02:14:05;;;;;;;7.97;2.22;;;12.80;99.90;;;;;;4901770;29;20075;-82
2023/06/01 02:16:33;;;;;;;7.78;2.63;;;12.80;99.90;;;;;;4917304;29;20074;-82
2023/06/01 02:19:02;;;;;;;13.20;2.92;;;12.80;99.90;;;;;;4918271;29;20132;-81
2023/06/01 02:21:31;;;;;;;13.25;2.45;;;12.80;99.90;;;;;;4918034;29;20048;-82
2023/06/01 02:24:05;;;;;;;8.05;2.92;;;12.80;99.90;;;;;;4905449;29;20527;-81
2023/06/01 02:26:33;;;;;;;8.30;2.85;;;12.70;99.90;;;;;;4917295;29;20494;-83
2023/06/01 02:29:02;;;;;;;7.75;2.22;;;12.70;99.90;;;;;;4900833;29;20047;-81
2023/06/01 02:31:29;;;;;;;7.53;2.80;;;12.70;99.90;;;;;;4912768;29;20512;-81
2023/06/01 02:33:57;;;;;;;7.45;2.80;;;12.70;99.90;;;;;;4901143;29;20051;-82
2023/06/01 02:36:25;;;;;;;5.13;2.03;;;12.70;99.90;;;;;;4917521;29;20142;-82
2023/06/01 02:38:55;;;;;;;3.90;2.40;;;12.80;99.90;;;;;;4893027;29;20435;-81
2023/06/01 02:41:22;;;;;;;7.55;2.67;;;12.80;99.90;;;;;;4916847;29;20055;-80
2023/06/01 02:43:51;;;;;;;6.18;2.65;;;12.80;99.90;;;;;;4935618;29;20058;-81
2023/06/01 02:46:19;;;;;;;6.65;2.45;;;12.90;99.90;;;;;;4898799;29;20052;-83
2023/06/01 02:48:47;;;;;;;8.88;2.70;;;12.90;99.90;;;;;;4910964;29;20048;-83
2023/06/01 02:51:15;;;;;;;5.50;2.15;;;12.90;99.90;;;;;;4909878;29;20482;-83
2023/06/01 02:53:46;;;;;;;5.90;2.40;;;12.90;99.90;;;;;;4918103;29;20051;-82
2023/06/01 02:56:16;;;;;;;7.32;2.80;;;12.90;99.90;;;;;;4896579;29;20500;-84
2023/06/01 02:59:22;;;;;;;7.72;2.80;;;12.90;99.90;;;;;;4842007;29;20089;-82
2023/06/01 03:01:56;;;;;;;4.53;2.30;;;12.90;99.90;;;;;;4846353;29;20580;-84
2023/06/01 03:04:24;;;;;;;5.68;2.35;;;12.90;99.90;;;;;;4905225;29;20059;-84
2023/06/01 03:06:52;;;;;;;4.88;2.10;;;12.90;99.90;;;;;;4909900;29;20047;-87
2023/06/01 03:09:46;;;;;;;3.85;2.35;;;12.90;99.90;;;;;;4929874;29;20048;-84
2023/06/01 03:12:47;;;;;;;9.15;1.92;;;13.00;99.90;;;;;;4878824;29;20060;-81
2023/06/01 03:15:18;;;;;;;11.20;2.47;;;13.10;99.90;;;;;;4893679;29;20505;-82
2023/06/01 03:17:45;;;;;;;8.20;2.65;;;13.30;99.90;;;;;;4930807;29;20052;-84
2023/06/01 03:20:15;;;;;;;5.70;2.25;;;13.30;99.90;;;;;;4916591;29;20055;-82
2023/06/01 03:22:43;;;;;;;6.32;1.80;;;13.40;99.90;;;;;;4900549;29;20079;-83
2023/06/01 03:25:12;;;;;;;4.30;2.53;;;13.50;99.90;;;;;;4896831;29;20052;-83
2023/06/01 03:27:40;;;;;;;5.55;2.00;;;13.60;99.90;;;;;;4931150;29;20047;-84
2023/06/01 03:30:11;;;;;;;7.50;2.35;;;13.70;99.90;;;;;;4901649;29;20055;-84
2023/06/01 03:32:42;;;;;;;4.05;2.20;;;13.70;99.90;;;;;;4897317;29;20048;-86
2023/06/01 03:35:11;;;;;;;3.72;1.42;;;13.80;99.90;;;;;;4931646;29;20131;-83
2023/06/01 03:37:41;;;;;;;5.72;1.70;;;13.80;99.90;;;;;;4919597;29;20074;-83
2023/06/01 03:40:11;;;;;;;3.53;1.48;;;13.80;99.90;;;;;;4915951;29;20056;-83
2023/06/01 03:42:41;;;;;;;4.72;1.85;;;13.90;99.90;;;;;;4912521;29;20050;-81
2023/06/01 03:45:12;;;;;;;1.73;1.25;;;14.00;99.90;;;;;;4920791;29;20138;-81
2023/06/01 03:47:41;;;;;;;7.57;1.73;;;14.00;99.90;;;;;;4919513;29;20055;-82
2023/06/01 03:50:12;;;;;;;5.30;1.75;;;14.10;99.90;;;;;;4919485;29;20047;-81
2023/06/01 03:52:40;;;;;;;2.00;1.55;;;14.20;99.90;;;;;;4914937;29;20048;-81
2023/06/01 03:55:10;;;;;;;2.67;1.98;;;14.30;99.90;;;;;;4897806;29;20522;-83
2023/06/01 03:58:04;;;;;;;5.38;2.10;;;14.40;99.90;;;;;;4914588;29;20147;-84
2023/06/01 04:00:36;;;;;;;4.75;1.80;;;14.50;99.90;;;;;;4895906;29;20059;-83
2023/06/01 04:03:07;;;;;;;2.88;2.08;;;14.70;99.90;;;;;;4923869;29;20149;-82
2023/06/01 04:05:36;;;;;;;3.35;1.63;;;14.80;99.90;;;;;;4939804;29;20055;-83
2023/06/01 04:08:04;;;;;;;2.22;1.30;;;14.90;99.90;;;;;;4920923;29;20404;-83
2023/06/01 04:10:32;;;;;;;4.32;1.70;;;15.00;99.90;;;;;;4917092;29;20139;-84
2023/06/01 04:12:59;;;;;;;5.20;1.65;;;15.00;99.90;;;;;;4908413;29;20442;-82
2023/06/01 04:15:29;;;;;;;6.60;1.70;;;15.00;99.90;;;;;;4939556;29;20055;-81
2023/06/01 04:18:00;;;;;;;3.30;1.58;;;15.00;99.90;;;;;;4933617;29;20048;-80
2023/06/01 04:20:31;;;;;;;5.18;2.17;;;14.90;99.90;;;;;;4901353;29;20052;-81
2023/06/01 04:22:59;;;;;;;6.15;1.73;;;14.90;99.90;;;;;;4887349;29;20044;-79
2023/06/01 04:25:28;;;;;;;5.93;1.33;;;14.90;99.90;;;;;;4920334;29;20159;-81
2023/06/01 04:27:56;;;;;;;4.32;1.55;;;14.90;99.90;;;;;;4897715;29;20104;-81
2023/06/01 04:30:26;;;;;;;3.65;1.20;;;15.00;99.90;;;;;;4917004;29;20048;-81
2023/06/01 04:32:55;;;;;;;3.67;1.30;;;15.10;99.90;;;;;;4918574;29;20469;-81
2023/06/01 04:35:49;;;;;;;8.35;1.55;;;15.20;99.90;;;;;;4892389;29;20416;-81
2023/06/01 04:38:18;;;;;;;2.70;1.25;;;15.40;99.90;;;;;;4925850;29;20059;-81
2023/06/01 04:40:47;;;;;;;5.40;1.52;;;15.60;99.90;;;;;;4919016;29;20067;-80
2023/06/01 04:43:18;;;;;;;1.20;0.95;;;15.70;99.90;;;;;;4917704;29;20056;-80
2023/06/01 04:45:49;;;;;;;2.42;1.13;;;15.70;99.90;;;;;;4897644;29;20064;-80
2023/06/01 04:48:18;;;;;;;4.68;1.83;;;15.70;99.90;;;;;;4921879;29;20052;-80
2023/06/01 04:51:04;;;;;;;3.10;1.35;;;15.70;99.90;;;;;;4915279;29;20047;-79
2023/06/01 04:53:32;;;;;;;3.67;1.30;;;15.70;99.90;;;;;;4955323;28;20050;-80
2023/06/01 04:56:00;;;;;;;3.85;1.98;;;15.70;99.90;;;;;;4926654;29;20135;-81
2023/06/01 04:58:32;;;;;;;4.85;1.42;;;15.70;99.90;;;;;;4917237;29;20059;-80
2023/06/01 05:01:01;;;;;;;1.67;1.17;;;15.80;99.90;;;;;;4905467;29;20066;-84
2023/06/01 05:03:29;;;;;;;4.97;1.35;;;15.80;99.90;;;;;;4909286;29;20913;-83
2023/06/01 05:06:04;;;;;;;2.72;1.35;;;15.90;99.90;;;;;;4905214;29;20059;-83
2023/06/01 05:08:33;;;;;;;6.38;1.25;;;16.00;99.90;;;;;;4924139;29;20128;-80
2023/06/01 05:11:03;;;;;;;4.72;1.52;;;16.10;99.90;;;;;;4903646;29;20043;-79
2023/06/01 05:13:31;;;;;;;3.85;1.30;;;16.20;99.90;;;;;;4931751;29;20138;-79
2023/06/01 05:16:01;;;;;;;4.05;1.08;;;16.20;99.90;;;;;;4932750;29;20043;-80
2023/06/01 05:18:32;;;;;;;2.65;1.15;;;16.20;99.90;;;;;;4918809;29;20113;-84
2023/06/01 05:21:06;;;;;;;4.90;1.20;;;16.20;99.90;;;;;;4901703;29;20074;-81
2023/06/01 05:23:37;;;;;;;3.20;1.65;;;16.20;99.90;;;;;;4916763;29;20844;-83
2023/06/01 05:26:07;;;;;;;4.25;1.25;;;16.20;99.90;;;;;;4904720;29;20047;-82
2023/06/01 05:28:36;;;;;;;3.38;1.63;;;16.20;99.90;;;;;;4925231;29;20150;-82
2023/06/01 05:31:09;;;;;;;1.77;1.27;;;16.20;99.90;;;;;;4925250;29;20055;-83
2023/06/01 05:33:42;;;;;;;5.38;1.40;;;16.20;99.90;;;;;;4900168;29;20048;-82
2023/06/01 05:36:12;;;;;;;2.78;1.40;;;16.30;99.90;;;;;;4915069;29;20146;-79
2023/06/01 05:38:40;;;;;;;4.38;1.02;;;16.60;99.90;;;;;;4922183;29;20047;-84
2023/06/01 05:41:11;;;;;;;3.28;1.00;;;17.00;99.90;;;;;;4919595;29;20063;-85
2023/06/01 05:43:39;;;;;;;3.83;1.20;;;17.20;99.90;;;;;;4904480;29;20055;-82
2023/06/01 05:46:13;;;;;;;4.18;1.58;;;17.40;99.90;;;;;;4934511;29;20083;-83
2023/06/01 05:48:43;;;;;;;3.38;1.20;;;17.70;99.90;;;;;;4924847;29;20059;-82
2023/06/01 05:51:17;;;;;;;3.35;1.00;;;17.70;99.90;;;;;;4902137;29;20047;-84
2023/06/01 05:53:48;;;;;;;3.90;1.30;;;17.70;99.90;;;;;;4903790;29;20056;-83
2023/06/01 05:56:20;;;;;;;2.75;1.20;;;17.50;99.90;;;;;;4927892;29;20059;-81
2023/06/01 05:58:53;;;;;;;4.00;0.90;;;17.30;99.90;;;;;;4940301;28;20056;-82
2023/06/01 06:01:28;;;;;;;2.67;0.98;;;17.10;99.90;;;;;;4931545;29;20062;-82
2023/06/01 06:03:57;;;;;;;5.03;1.05;;;17.00;99.90;;;;;;4928352;29;20054;-82
2023/06/01 06:06:30;;;;;;;1.20;0.88;;;16.90;99.90;;;;;;4934179;29;20170;-82
2023/06/01 06:08:58;;;;;;;7.05;0.98;;;16.80;99.90;;;;;;4871610;29;20052;-82
2023/06/01 06:11:25;;;;;;;2.53;1.15;;;16.70;99.90;;;;;;4908029;29;20525;-82
2023/06/01 06:13:56;;;;;;;3.35;0.55;;;16.60;99.90;;;;;;4891893;29;20103;-79
2023/06/01 06:16:24;;;;;;;2.50;1.27;;;16.70;99.90;;;;;;4930001;29;20055;-78
2023/06/01 06:18:53;;;;;;;5.28;0.63;;;16.60;99.90;;;;;;4912242;29;20062;-82
2023/06/01 06:21:27;;;;;;;3.72;0.82;;;16.50;99.90;;;;;;4931131;29;20056;-81
2023/06/01 06:24:04;;;;;;;3.40;1.65;;;16.70;99.90;;;;;;4915339;29;20059;-83
2023/06/01 06:26:35;;;;;;;8.27;1.42;;;16.90;99.90;;;;;;4927994;29;20127;-81
2023/06/01 06:29:06;;;;;;;3.10;1.20;;;17.10;99.90;;;;;;4931333;29;20262;-87
2023/06/01 06:31:34;;;;;;;3.35;0.80;;;17.20;99.90;;;;;;4919101;29;20821;-88
2023/06/01 06:34:05;;;;;;;3.10;1.02;;;17.50;99.90;;;;;;4918749;29;20528;-86
2023/06/01 06:36:49;;;;;;;1.90;0.88;;;17.80;99.90;;;;;;4935012;29;20500;-81
2023/06/01 06:39:22;;;;;;;2.00;1.10;;;18.30;99.90;;;;;;4923327;29;20071;-80
2023/06/01 06:41:50;;;;;;;6.07;1.23;;;18.50;99.90;;;;;;4913928;29;20056;-79
2023/06/01 06:44:17;;;;;;;2.60;1.00;;;18.40;99.90;;;;;;4912704;29;20079;-79
2023/06/01 06:46:55;;;;;;;6.85;1.20;;;18.30;99.90;;;;;;4915816;29;20055;-80
2023/06/01 06:49:58;;;;;;;4.45;1.10;;;18.20;99.90;;;;;;4916353;29;20051;-84
2023/06/01 06:52:28;;;;;;;5.35;1.05;;;18.10;99.90;;;;;;4914231;29;20056;-87
2023/06/01 06:54:58;;;;;;;2.80;1.08;;;18.00;99.90;;;;;;4934809;29;20110;-85
2023/06/01 06:57:26;;;;;;;9.30;1.35;;;17.90;99.90;;;;;;4935759;29;20048;-88
2023/06/01 06:59:57;;;;;;;6.82;1.20;;;17.70;99.90;;;;;;4915422;29;20071;-87
2023/06/01 07:02:28;;;;;;;2.30;0.88;;;17.50;99.90;;;;;;4929222;29;20512;-80
2023/06/01 07:05:02;;;;;;;8.82;1.65;;;17.20;99.90;;;;;;4908795;29;20055;-81
2023/06/01 07:07:43;;;;;;;9.40;1.20;;;16.90;99.90;;;;;;4915140;29;20535;-82
2023/06/01 07:10:11;;;;;;;2.80;1.00;;;16.60;99.90;;;;;;4931314;29;20079;-80
2023/06/01 07:12:39;;;;;;;7.10;1.35;;;16.30;99.90;;;;;;4929649;29;20051;-80
2023/06/01 07:15:09;;;;;;;8.95;1.05;;;16.00;99.90;;;;;;4914656;29;20125;-81
2023/06/01 07:17:36;;;;;;;5.53;1.42;;;15.70;99.90;;;;;;4946169;28;20163;-80
2023/06/01 07:20:11;;;;;;;6.30;1.20;;;15.60;99.90;;;;;;4920530;29;20051;-78
2023/06/01 07:22:44;;;;;;;4.60;0.82;;;15.40;99.90;;;;;;4938248;28;20139;-77
2023/06/01 07:25:12;;;;;;;8.65;1.27;;;15.30;99.90;;;;;;4911473;29;20060;-78
2023/06/01 07:27:48;;;;;;;4.10;1.17;;;15.30;99.90;;;;;;4927310;29;20408;-78
2023/06/01 07:30:27;;;;;;;6.88;1.10;;;15.30;99.90;;;;;;4938383;29;20048;-77
2023/06/01 07:32:54;;;;;;;8.10;1.52;;;15.30;99.90;;;;;;4908160;29;20087;-77
2023/06/01 07:35:22;;;;;;;1.27;0.98;;;15.30;99.90;;;;;;4918312;29;20106;-77
2023/06/01 07:37:58;;;;;;;3.85;0.93;;;15.30;99.90;;;;;;4934168;29;20055;-77
2023/06/01 07:40:25;;;;;;;7.13;1.05;;;15.30;99.90;;;;;;4918462;29;20142;-81
2023/06/01 07:42:53;;;;;;;5.35;0.80;;;15.40;99.90;;;;;;4902552;29;20050;-79
2023/06/01 07:45:21;;;;;;;6.60;1.15;;;15.50;99.90;;;;;;4914726;29;20059;-80
2023/06/01 07:47:56;;;;;;;10.32;1.20;;;15.70;99.90;;;;;;4930642;29;20471;-82
2023/06/01 07:50:28;;;;;;;5.70;1.30;;;15.80;99.90;;;;;;4911445;29;20481;-77
2023/06/01 07:53:06;;;;;;;6.05;1.35;;;15.90;99.90;;;;;;4925783;29;20099;-77
2023/06/01 07:55:34;;;;;;;6.25;0.90;;;16.10;99.90;;;;;;4927383;29;20082;-77
2023/06/01 07:58:05;;;;;;;7.30;0.77;;;16.30;99.90;;;;;;4909406;29;20043;-78
2023/06/01 08:00:45;;;;;;;8.63;0.85;;;16.70;99.90;;;;;;4913183;29;20099;-76
2023/06/01 08:03:16;;;;;;;11.20;1.60;;;17.40;99.90;;;;;;4926955;29;20079;-77
2023/06/01 08:05:50;;;;;;;5.13;0.88;;;18.00;99.90;;;;;;4932546;29;20140;-77
2023/06/01 08:08:23;;;;;;;4.80;0.95;;;18.50;99.90;;;;;;4934147;28;20051;-76
2023/06/01 08:10:54;;;;;;;11.30;1.00;;;18.70;99.90;;;;;;4927299;29;20575;-77
2023/06/01 08:13:25;;;;;;;4.57;1.02;;;18.80;99.90;;;;;;4927554;29;20051;-76
2023/06/01 08:15:53;;;;;;;3.70;1.20;;;18.90;99.90;;;;;;4927843;29;20069;-76
2023/06/01 08:18:23;;;;;;;6.50;1.17;;;19.00;99.90;;;;;;4928343;29;20427;-76
2023/06/01 08:20:51;;;;;;;10.05;1.25;;;19.10;99.90;;;;;;4925733;29;20090;-76
2023/06/01 08:23:23;;;;;;;3.92;1.02;;;19.30;99.90;;;;;;4898992;29;20571;-77
2023/06/01 08:25:50;;;;;;;6.13;1.25;;;19.30;98.30;;;;;;4930503;29;20086;-77
2023/06/01 08:28:18;;;;;;;1.48;0.80;;;18.90;98.30;;;;;;4913449;29;20040;-75
2023/06/01 08:30:49;;;;;;;4.90;1.30;;;18.60;98.70;;;;;;4901510;29;20047;-78
2023/06/01 08:33:16;;;;;;;5.30;1.35;;;18.50;99.10;;;;;;4936274;29;20526;-79
2023/06/01 08:35:43;;;;;;;6.80;1.10;;;18.40;99.10;;;;;;4932121;29;20051;-78
2023/06/01 08:38:11;;;;;;;3.35;0.85;;;18.30;98.90;;;;;;4930394;29;20095;-77
2023/06/01 08:40:42;;;;;;;15.07;1.10;;;18.20;98.10;;;;;;4933674;29;20044;-77
2023/06/01 08:43:19;;;;;;;8.65;1.25;;;18.30;98.20;;;;;;4913735;29;20417;-78
2023/06/01 08:45:47;;;;;;;7.10;1.08;;;18.20;98.90;;;;;;4914893;29;20159;-77
2023/06/01 08:48:19;;;;;;;4.20;1.17;;;18.20;97.90;;;;;;4917280;29;20050;-78
2023/06/01 08:50:53;;;;;;;7.05;1.52;;;18.10;97.90;;;;;;4914724;29;20067;-77
2023/06/01 08:53:22;;;;;;;5.65;1.02;;;18.50;97.60;;;;;;4895584;29;20143;-78
2023/06/01 08:55:59;;;;;;;12.27;1.52;;;19.20;96.20;;;;;;4918673;29;20079;-77
2023/06/01 08:58:34;;;;;;;6.03;1.02;;;20.10;95.00;;;;;;4925564;29;20051;-77
2023/06/01 09:01:05;;;;;;;4.00;0.93;;;21.10;93.40;;;;;;4927437;29;20087;-79
2023/06/01 09:03:32;;;;;;;9.38;1.10;;;21.90;88.20;;;;;;4932735;29;20071;-79
2023/06/01 09:05:59;;;;;;;2.85;1.30;;;22.70;82.90;;;;;;4943713;29;20051;-78
2023/06/01 09:08:30;;;;;;;10.30;1.20;;;22.70;81.20;;;;;;4920362;29;20158;-75
2023/06/01 09:11:06;;;;;;;7.30;1.20;;;22.50;80.90;;;;;;4942081;29;20110;-75
2023/06/01 09:13:39;;;;;;;4.47;1.30;;;22.50;78.80;;;;;;4927978;29;20051;-77
2023/06/01 09:16:10;;;;;;;6.40;1.40;;;22.30;78.70;;;;;;4936630;29;20048;-77
2023/06/01 09:18:53;;;;;;;5.68;1.20;;;22.70;75.60;;;;;;4932419;29;20051;-75
2023/06/01 09:21:21;;;;;;;8.23;1.40;;;23.50;71.30;;;;;;4934400;29;20138;-75
2023/06/01 09:23:48;;;;;;;12.93;1.90;;;24.30;68.00;;;;;;4916555;29;20590;-75
2023/06/01 09:26:19;;;;;;;12.25;2.08;;;24.60;64.30;;;;;;4917159;29;20090;-77
2023/06/01 09:29:02;;;;;;;5.18;1.40;;;24.70;61.80;;;;;;4925102;29;20059;-77
2023/06/01 09:31:41;;;;;;;9.73;2.08;;;24.90;61.70;;;;;;4920202;29;20054;-78
2023/06/01 09:34:11;;;;;;;6.55;1.38;;;25.40;59.90;;;;;;4921772;29;20147;-77
2023/06/01 09:36:38;;;;;;;8.70;1.83;;;25.70;59.60;;;;;;4938020;29;20071;-79
2023/06/01 09:39:10;;;;;;;13.00;1.85;;;26.20;56.20;;;;;;4932733;29;20134;-76
2023/06/01 09:41:56;;;;;;;3.30;1.20;;;26.20;56.60;;;;;;4931507;29;20051;-77
2023/06/01 09:44:28;;;;;;;3.00;1.05;;;26.60;55.30;;;;;;4936271;29;20515;-75
2023/06/01 09:47:01;;;;;;;4.85;1.30;;;26.90;53.20;;;;;;4937743;29;20079;-77
2023/06/01 09:49:31;;;;;;;6.78;1.70;;;26.70;51.80;;;;;;4905863;29;20047;-75
2023/06/01 09:52:14;;;;;;;4.40;1.42;;;26.70;52.60;;;;;;4943291;29;20063;-76
2023/06/01 09:54:45;;;;;;;4.75;1.10;;;26.80;52.40;;;;;;4904916;29;20047;-76
2023/06/01 09:57:26;;;;;;;11.35;1.73;;;26.50;53.30;;;;;;4936679;29;20097;-76
2023/06/01 09:59:59;;;;;;;6.25;1.42;;;26.50;52.20;;;;;;4940189;29;20142;-73
2023/06/01 10:02:31;;;;;;;7.88;1.98;;;26.40;51.80;;;;;;4918180;29;20063;-76
2023/06/01 10:04:58;;;;;;;9.10;1.42;;;26.80;51.50;;;;;;4908340;29;20048;-77
2023/06/01 10:07:34;;;;;;;3.22;1.20;;;26.70;51.70;;;;;;4913975;29;20142;-75
2023/06/01 10:10:03;;;;;;;12.23;1.40;;;26.70;52.10;;;;;;4927604;29;20055;-77
2023/06/01 10:12:37;;;;;;;8.48;1.77;;;26.50;51.70;;;;;;4933067;29;20040;-75
2023/06/01 10:15:07;;;;;;;14.18;1.48;;;25.80;52.50;;;;;;4935195;29;20064;-76
2023/06/01 10:17:42;;;;;;;7.50;1.20;;;25.50;51.80;;;;;;4888856;29;20555;-76
2023/06/01 10:20:12;;;;;;;10.23;1.60;;;25.10;53.60;;;;;;4915702;29;20054;-77
2023/06/01 10:22:42;;;;;;;18.38;1.85;;;25.60;53.50;;;;;;4927121;29;20064;-77
2023/06/01 10:25:13;;;;;;;14.63;1.73;;;26.10;53.10;;;;;;4937788;29;20059;-76
2023/06/01 10:28:00;;;;;;;11.25;1.85;;;25.70;52.50;;;;;;4924997;29;20050;-73
2023/06/01 10:30:29;;;;;;;15.05;2.15;;;25.20;52.90;;;;;;4916670;29;20054;-75
2023/06/01 10:32:57;;;;;;;27.38;2.38;;;24.20;55.20;;;;;;4935839;29;20054;-74
2023/06/01 10:36:01;;;;;;;10.10;1.38;;;24.30;55.10;;;;;;4912372;29;20044;-76
2023/06/01 10:38:29;;;;;;;14.65;1.75;;;24.40;54.70;;;;;;4914370;29;20059;-75
2023/06/01 10:41:31;;;;;;;7.72;1.20;;;24.50;53.70;;;;;;4928464;29;20451;-76
2023/06/01 10:44:00;;;;;;;10.43;1.42;;;24.80;53.00;;;;;;4920674;29;20056;-76
2023/06/01 10:46:44;;;;;;;7.78;1.48;;;25.50;53.10;;;;;;4916290;29;20074;-77
2023/06/01 10:49:12;;;;;;;12.93;1.60;;;25.30;53.00;;;;;;4916069;29;20056;-75
2023/06/01 10:51:40;;;;;;;10.15;1.75;;;25.30;52.70;;;;;;4934427;29;20054;-77
2023/06/01 10:54:34;;;;;;;10.82;1.95;;;25.30;53.00;;;;;;4931444;29;20496;-76
2023/06/01 10:57:22;;;;;;;15.20;2.00;;;25.60;53.60;;;;;;4874511;29;20058;-76
2023/06/01 11:00:23;;;;;;;17.80;1.85;;;26.10;51.50;;;;;;4925157;29;20079;-75
2023/06/01 11:02:55;;;;;;;7.13;1.38;;;25.80;52.50;;;;;;4907072;29;20401;-74
2023/06/01 11:05:42;;;;;;;10.60;1.40;;;25.30;53.70;;;;;;4887525;29;20063;-76
2023/06/01 11:08:56;;;;;;;11.45;1.48;;;23.80;54.40;;;;;;4935724;29;20047;-76
2023/06/01 11:11:25;;;;;;;12.43;1.70;;;23.90;55.70;;;;;;4931293;29;20143;-75
2023/06/01 11:14:13;;;;;;;3.95;1.17;;;25.10;53.20;;;;;;4909339;29;20070;-76
2023/06/01 11:16:44;;;;;;;9.27;1.25;;;25.70;52.10;;;;;;4917130;29;20102;-76
2023/06/01 11:19:20;;;;;;;6.88;1.30;;;25.90;52.00;;;;;;4914480;29;20052;-76
2023/06/01 11:21:48;;;;;;;9.05;1.40;;;26.40;51.20;;;;;;4941616;29;20536;-76
2023/06/01 11:24:18;;;;;;;16.30;1.80;;;27.20;50.40;;;;;;4917552;29;20050;-75
2023/06/01 11:26:48;;;;;;;8.07;1.23;;;27.80;50.00;;;;;;4928144;29;20054;-75
2023/06/01 11:29:18;;;;;;;6.53;1.98;;;27.80;48.90;;;;;;4905234;29;20436;-76
2023/06/01 11:31:50;;;;;;;14.93;1.50;;;27.40;49.60;;;;;;4922425;29;20044;-76
2023/06/01 11:34:20;;;;;;;10.30;1.20;;;27.00;50.00;;;;;;4931280;29;20054;-75
2023/06/01 11:36:50;;;;;;;6.22;1.30;;;25.70;50.60;;;;;;4923435;29;20504;-77
2023/06/01 11:39:23;;;;;;;7.50;1.73;;;25.30;52.10;;;;;;4915628;29;20094;-77
2023/06/01 11:41:58;;;;;;;8.07;1.58;;;26.00;50.90;;;;;;4927848;29;20504;-77
2023/06/01 11:44:26;;;;;;;8.23;1.90;;;26.70;50.60;;;;;;4925182;29;20066;-76
2023/06/01 11:46:57;;;;;;;4.55;1.60;;;27.10;49.30;;;;;;4930253;29;20428;-78
2023/06/01 11:49:25;;;;;;;17.90;2.80;;;26.90;49.80;;;;;;4929696;29;20055;-80
2023/06/01 11:51:55;;;;;;;7.22;1.55;;;25.30;50.60;;;;;;4920333;29;20055;-79
2023/06/01 11:54:37;;;;;;;21.38;1.83;;;24.80;51.40;;;;;;4932545;29;20154;-77
2023/06/01 11:57:07;;;;;;;5.38;1.40;;;23.90;52.40;;;;;;4951284;28;20051;-77
2023/06/01 11:59:39;;;;;;;9.15;1.92;;;23.10;54.70;;;;;;4940382;29;20061;-79
2023/06/01 12:02:21;;;;;;;5.13;1.50;;;24.40;53.20;;;;;;4944035;29;20066;-82
2023/06/01 12:04:59;;;;;;;14.48;2.13;;;26.40;50.10;;;;;;4930536;29;20055;-80
2023/06/01 12:07:28;;;;;;;8.85;1.80;;;27.50;49.10;;;;;;4897280;29;20052;-82
2023/06/01 12:09:57;;;;;;;10.27;1.83;;;27.60;48.20;;;;;;4935113;29;20052;-82
2023/06/01 12:12:28;;;;;;;9.30;1.73;;;27.70;47.70;;;;;;4934411;29;20055;-80
2023/06/01 12:14:55;;;;;;;17.25;1.73;;;28.10;47.50;;;;;;4938269;29;20051;-79
2023/06/01 12:17:25;;;;;;;5.35;1.60;;;28.60;45.50;;;;;;4914306;29;20130;-79
2023/06/01 12:19:52;;;;;;;3.28;1.42;;;29.00;44.80;;;;;;4932275;29;20051;-80
2023/06/01 12:22:20;;;;;;;10.98;1.85;;;29.40;44.40;;;;;;4918486;29;20552;-81
2023/06/01 12:24:48;;;;;;;11.15;1.90;;;28.80;45.60;;;;;;4936287;29;20538;-78
2023/06/01 12:27:19;;;;;;;13.00;3.30;;;27.90;46.00;;;;;;4928209;29;20514;-79
2023/06/01 12:29:50;;;;;;;19.90;1.90;;;26.30;47.70;;;;;;4933269;29;20048;-80
2023/06/01 12:32:18;;;;;;;17.92;2.60;;;25.30;49.70;;;;;;4935546;29;20138;-80
2023/06/01 12:35:06;;;;;;;7.47;1.95;;;25.90;49.40;;;;;;4934246;29;20064;-85
2023/06/01 12:37:34;;;;;;;12.48;1.83;;;26.80;47.90;;;;;;4940306;29;20047;-78
2023/06/01 12:40:03;;;;;;;7.43;2.03;;;27.30;47.30;;;;;;4912010;29;20591;-80
2023/06/01 12:42:57;;;;;;;6.20;1.80;;;27.90;46.80;;;;;;4934068;29;20075;-78
2023/06/01 12:45:36;;;;;;;11.52;2.05;;;28.50;44.70;;;;;;4930621;29;20043;-80
2023/06/01 12:48:10;;;;;;;7.63;1.45;;;28.30;44.90;;;;;;4918607;29;20048;-82
2023/06/01 12:50:49;;;;;;;9.88;1.98;;;28.70;45.80;;;;;;4896726;29;20062;-83
2023/06/01 12:53:17;;;;;;;11.23;1.83;;;29.00;44.50;;;;;;4929219;29;20051;-78
2023/06/01 12:55:44;;;;;;;19.50;2.13;;;28.90;43.90;;;;;;4913367;29;20082;-78
2023/06/01 12:58:12;;;;;;;10.68;1.80;;;28.70;44.10;;;;;;4927349;29;20048;-78
2023/06/01 13:00:40;;;;;;;17.95;1.85;;;28.50;43.50;;;;;;4935908;29;20051;-77
2023/06/01 13:03:07;;;;;;;8.07;1.80;;;28.60;44.00;;;;;;4929279;29;20467;-78
2023/06/01 13:05:35;;;;;;;7.55;1.98;;;29.00;44.80;;;;;;4929579;29;20079;-78
2023/06/01 13:08:04;;;;;;;13.23;2.20;;;29.20;43.60;;;;;;4939296;28;20053;-77
2023/06/01 13:10:31;;;;;;;4.97;2.00;;;29.40;43.90;;;;;;4944885;29;20736;-75
2023/06/01 13:12:59;;;;;;;7.03;1.98;;;29.40;43.70;;;;;;4933180;29;20389;-76
2023/06/01 13:15:27;;;;;;;5.57;1.55;;;29.30;43.00;;;;;;4926638;29;20055;-77